createdAt,value
2023-09-27T00:01:35.144Z,5.67
2023-09-27T00:04:02.015Z,9.10
2023-09-27T00:06:29.289Z,5.27
2023-09-27T00:08:56.155Z,5.40
2023-09-27T00:11:22.988Z,4.93
2023-09-27T00:13:50.338Z,16.13
2023-09-27T00:16:17.213Z,7.70
2023-09-27T00:18:44.261Z,12.60
2023-09-27T00:21:11.151Z,5.30
2023-09-27T00:23:38.366Z,8.10
2023-09-27T00:26:05.267Z,7.50
2023-09-27T00:28:32.067Z,10.03
2023-09-27T00:30:58.984Z,10.30
2023-09-27T00:33:26.122Z,7.53
2023-09-27T00:35:53.363Z,5.37
2023-09-27T00:38:20.263Z,7.37
2023-09-27T00:40:51.733Z,6.03
2023-09-27T00:43:33.278Z,7.60
2023-09-27T00:46:05.525Z,6.17
2023-09-27T00:48:33.874Z,5.00
2023-09-27T00:51:02.105Z,9.20
2023-09-27T00:53:34.064Z,6.70
2023-09-27T00:56:01.528Z,7.27
2023-09-27T00:58:34.363Z,8.80
2023-09-27T01:01:01.866Z,10.13
2023-09-27T01:03:28.837Z,12.73
2023-09-27T01:05:55.903Z,7.07
2023-09-27T01:08:22.826Z,12.23
2023-09-27T01:10:49.904Z,5.33
2023-09-27T01:13:19.648Z,10.53
2023-09-27T01:15:46.772Z,5.53
2023-09-27T01:18:13.764Z,8.27
2023-09-27T01:20:40.712Z,8.47
2023-09-27T01:23:07.949Z,10.90
2023-09-27T01:25:37.009Z,15.90
2023-09-27T01:28:07.724Z,7.63
2023-09-27T01:30:35.120Z,10.27
2023-09-27T01:33:09.096Z,7.60
2023-09-27T01:35:41.971Z,5.63
2023-09-27T01:38:10.745Z,6.63
2023-09-27T01:40:45.689Z,6.73
2023-09-27T01:43:13.084Z,9.30
2023-09-27T01:45:40.431Z,15.97
2023-09-27T01:48:07.585Z,23.20
2023-09-27T01:50:36.188Z,16.47
2023-09-27T01:53:04.241Z,16.20
2023-09-27T01:55:32.449Z,25.43
2023-09-27T01:58:01.535Z,20.07
2023-09-27T02:00:29.293Z,22.17
2023-09-27T02:02:57.996Z,24.67
2023-09-27T02:05:27.067Z,20.90
2023-09-27T02:07:54.256Z,16.07
2023-09-27T02:10:21.883Z,13.53
2023-09-27T02:12:48.938Z,14.33
2023-09-27T02:15:17.014Z,15.40
2023-09-27T02:17:44.685Z,10.90
2023-09-27T02:20:14.378Z,16.50
2023-09-27T02:22:42.296Z,13.80
2023-09-27T02:25:12.511Z,16.90
2023-09-27T02:27:40.227Z,17.37
2023-09-27T02:30:08.898Z,20.57
2023-09-27T02:32:35.963Z,18.50
2023-09-27T02:35:03.539Z,18.10
2023-09-27T02:37:31.362Z,11.80
2023-09-27T02:39:58.571Z,13.50
2023-09-27T02:42:26.175Z,17.90
2023-09-27T02:44:54.052Z,15.70
2023-09-27T02:47:21.323Z,15.87
2023-09-27T02:49:48.175Z,14.00
2023-09-27T02:52:14.961Z,17.23
2023-09-27T02:54:41.982Z,15.30
2023-09-27T02:57:08.968Z,14.37
2023-09-27T02:59:35.953Z,19.13
2023-09-27T03:02:04.419Z,11.50
2023-09-27T03:04:32.266Z,11.97
2023-09-27T03:07:00.638Z,12.40
2023-09-27T03:09:27.618Z,11.07
2023-09-27T03:11:54.814Z,13.30
2023-09-27T03:14:21.667Z,26.80
2023-09-27T03:16:48.583Z,22.10
2023-09-27T03:19:15.432Z,15.67
2023-09-27T03:21:42.249Z,11.67
2023-09-27T03:24:09.600Z,11.97
2023-09-27T03:26:36.889Z,18.40
2023-09-27T03:29:03.977Z,16.83
2023-09-27T03:31:31.533Z,19.63
2023-09-27T03:33:58.525Z,29.93
2023-09-27T03:36:25.393Z,11.77
2023-09-27T03:38:52.410Z,12.17
2023-09-27T03:41:19.527Z,10.17
2023-09-27T03:43:49.983Z,12.70
2023-09-27T03:46:17.227Z,11.73
2023-09-27T03:48:44.022Z,30.80
2023-09-27T03:51:11.035Z,22.73
2023-09-27T03:53:37.835Z,52.53
2023-09-27T03:56:05.031Z,19.13
2023-09-27T03:58:32.372Z,18.13
2023-09-27T04:00:59.286Z,10.17
2023-09-27T04:03:27.617Z,9.90
2023-09-27T04:05:54.769Z,12.87
2023-09-27T04:08:22.721Z,11.17
2023-09-27T04:10:50.301Z,11.93
2023-09-27T04:13:17.282Z,9.00
2023-09-27T04:15:44.297Z,17.37
2023-09-27T04:18:11.103Z,12.90
2023-09-27T04:20:38.162Z,9.20
2023-09-27T04:23:05.078Z,13.03
2023-09-27T04:25:31.975Z,8.80
2023-09-27T04:27:58.846Z,10.70
2023-09-27T04:30:25.923Z,9.67
2023-09-27T04:32:53.497Z,11.60
2023-09-27T04:35:21.503Z,9.27
2023-09-27T04:37:49.785Z,8.80
2023-09-27T04:40:16.942Z,9.27
2023-09-27T04:42:45.332Z,19.03
2023-09-27T04:45:13.997Z,11.47
2023-09-27T04:47:42.165Z,13.33
2023-09-27T04:50:16.644Z,12.93
2023-09-27T04:52:44.322Z,13.97
2023-09-27T04:55:11.388Z,32.50
2023-09-27T04:57:38.409Z,15.53
2023-09-27T05:00:07.641Z,31.70
2023-09-27T05:02:34.965Z,7.80
2023-09-27T05:05:01.911Z,6.10
2023-09-27T05:07:30.662Z,7.73
2023-09-27T05:09:57.618Z,7.33
2023-09-27T05:12:24.392Z,26.23
2023-09-27T05:14:51.199Z,10.97
2023-09-27T05:17:18.311Z,16.10
2023-09-27T05:19:45.349Z,6.40
2023-09-27T05:22:13.685Z,6.27
2023-09-27T05:24:40.474Z,8.83
2023-09-27T05:27:08.550Z,9.13
2023-09-27T05:29:35.940Z,6.87
2023-09-27T05:32:03.359Z,6.27
2023-09-27T05:34:32.088Z,5.67
2023-09-27T05:36:59.873Z,20.83
2023-09-27T05:39:26.881Z,9.10
2023-09-27T05:41:54.769Z,6.47
2023-09-27T05:44:21.692Z,8.33
2023-09-27T05:46:48.900Z,7.03
2023-09-27T05:49:16.307Z,6.83
2023-09-27T05:51:44.431Z,8.73
2023-09-27T05:54:11.819Z,5.77
2023-09-27T05:56:39.314Z,6.33
2023-09-27T05:59:10.310Z,7.80
2023-09-27T06:01:38.557Z,6.53
2023-09-27T06:04:05.698Z,6.70
2023-09-27T06:06:32.518Z,6.80
2023-09-27T06:08:59.750Z,6.37
2023-09-27T06:11:27.139Z,6.03
2023-09-27T06:13:53.945Z,6.77
2023-09-27T06:16:21.310Z,7.03
2023-09-27T06:18:48.829Z,8.37
2023-09-27T06:21:15.711Z,14.13
2023-09-27T06:23:42.728Z,5.93
2023-09-27T06:26:10.759Z,12.10
2023-09-27T06:28:40.517Z,13.43
2023-09-27T06:31:07.769Z,9.90
2023-09-27T06:33:40.330Z,14.03
2023-09-27T06:36:12.872Z,9.90
2023-09-27T06:38:40.523Z,11.20
2023-09-27T06:41:09.885Z,5.73
2023-09-27T06:43:36.790Z,6.33
2023-09-27T06:46:11.435Z,6.10
2023-09-27T06:48:39.152Z,13.83
2023-09-27T06:51:07.020Z,6.90
2023-09-27T06:53:34.866Z,6.90
2023-09-27T06:56:03.642Z,7.50
2023-09-27T06:58:31.255Z,5.90
2023-09-27T07:00:58.257Z,7.00
2023-09-27T07:03:30.780Z,8.87
2023-09-27T07:05:58.610Z,7.20
2023-09-27T07:08:25.621Z,7.33
2023-09-27T07:10:52.535Z,7.37
2023-09-27T07:13:19.325Z,5.50
2023-09-27T07:15:49.233Z,7.67
2023-09-27T07:18:16.166Z,9.70
2023-09-27T07:20:43.361Z,9.53
2023-09-27T07:23:16.172Z,8.80
2023-09-27T07:25:44.373Z,10.77
2023-09-27T07:28:12.294Z,11.57
2023-09-27T07:30:39.200Z,12.07
2023-09-27T07:33:13.211Z,11.77
2023-09-27T07:35:44.513Z,9.33
2023-09-27T07:38:12.293Z,17.70
2023-09-27T07:40:39.626Z,15.83
2023-09-27T07:43:06.898Z,12.07
2023-09-27T07:45:36.659Z,13.90
2023-09-27T07:48:04.865Z,13.93
2023-09-27T07:50:35.183Z,10.90
2023-09-27T07:53:07.231Z,14.63
2023-09-27T07:55:44.271Z,12.47
2023-09-27T07:58:13.706Z,23.63
2023-09-27T08:00:44.890Z,12.53
2023-09-27T08:03:12.680Z,13.90
2023-09-27T08:05:46.929Z,15.33
2023-09-27T08:08:17.630Z,12.27
2023-09-27T08:10:44.823Z,11.63
2023-09-27T08:13:16.830Z,20.53
2023-09-27T08:15:44.610Z,15.00
2023-09-27T08:18:11.652Z,16.87
2023-09-27T08:20:38.614Z,13.73
2023-09-27T08:23:05.887Z,21.70
2023-09-27T08:25:32.743Z,17.83
2023-09-27T08:28:02.348Z,12.80
2023-09-27T08:30:29.313Z,13.53
2023-09-27T08:32:56.241Z,21.37
2023-09-27T08:35:23.291Z,17.10
2023-09-27T08:37:50.252Z,16.80
2023-09-27T08:40:17.194Z,18.50
2023-09-27T08:42:44.557Z,15.83
2023-09-27T08:45:14.334Z,25.90
2023-09-27T08:47:43.247Z,17.63
2023-09-27T08:50:18.959Z,21.83
2023-09-27T08:52:48.074Z,20.77
2023-09-27T08:55:15.631Z,23.73
2023-09-27T08:57:47.833Z,18.40
2023-09-27T09:00:16.911Z,19.97
2023-09-27T09:02:45.899Z,26.90
2023-09-27T09:05:13.492Z,17.27
2023-09-27T09:07:44.329Z,21.13
2023-09-27T09:10:14.744Z,27.07
2023-09-27T09:12:43.531Z,28.43
2023-09-27T09:15:30.672Z,20.00
2023-09-27T09:18:00.598Z,21.70
2023-09-27T09:20:34.449Z,25.70
2023-09-27T09:23:08.366Z,21.37
2023-09-27T09:25:44.970Z,19.73
2023-09-27T09:28:14.565Z,12.70
2023-09-27T09:30:42.531Z,18.80
2023-09-27T09:33:21.318Z,17.13
2023-09-27T09:35:48.701Z,19.83
2023-09-27T09:38:32.191Z,20.27
2023-09-27T09:41:01.971Z,23.97
2023-09-27T09:43:36.436Z,21.40
2023-09-27T09:46:07.349Z,20.37
2023-09-27T09:48:35.626Z,19.80
2023-09-27T09:51:09.431Z,22.00
2023-09-27T09:53:41.583Z,12.47
2023-09-27T09:56:30.105Z,16.80
2023-09-27T09:59:04.943Z,16.27
2023-09-27T10:01:40.163Z,15.97
2023-09-27T10:04:08.539Z,14.50
2023-09-27T10:06:48.868Z,18.57
2023-09-27T10:09:18.222Z,12.73
2023-09-27T10:11:47.875Z,18.80
2023-09-27T10:14:17.850Z,16.23
2023-09-27T10:16:45.841Z,11.30
2023-09-27T10:19:14.325Z,13.97
2023-09-27T10:22:07.116Z,14.57
2023-09-27T10:24:38.411Z,21.40
2023-09-27T10:27:05.486Z,15.03
2023-09-27T10:29:32.417Z,14.73
2023-09-27T10:31:59.430Z,13.87
2023-09-27T10:34:26.552Z,14.30
2023-09-27T10:37:15.158Z,11.60
2023-09-27T10:40:20.647Z,18.70
2023-09-27T10:42:48.603Z,18.10
2023-09-27T10:45:17.978Z,8.93
2023-09-27T10:47:45.388Z,15.43
2023-09-27T10:50:12.348Z,12.20
2023-09-27T10:52:40.641Z,11.07
2023-09-27T10:55:15.373Z,12.53
2023-09-27T10:57:42.797Z,7.27
2023-09-27T11:00:13.572Z,17.43
2023-09-27T11:02:41.130Z,10.83
2023-09-27T11:05:09.501Z,10.37
2023-09-27T11:07:50.664Z,12.67
2023-09-27T11:10:34.310Z,11.20
2023-09-27T11:13:11.891Z,12.07
2023-09-27T11:15:43.086Z,7.77
2023-09-27T11:18:11.546Z,7.03
2023-09-27T11:20:39.547Z,9.10
2023-09-27T11:23:06.680Z,11.40
2023-09-27T11:25:35.960Z,9.37
2023-09-27T11:28:03.542Z,16.70
2023-09-27T11:30:33.181Z,7.73
2023-09-27T11:33:02.590Z,5.90
2023-09-27T11:35:29.990Z,11.23
2023-09-27T11:38:11.729Z,7.93
2023-09-27T11:40:41.342Z,6.00
2023-09-27T11:43:08.377Z,7.83
2023-09-27T11:45:51.271Z,6.07
2023-09-27T11:48:33.717Z,5.23
2023-09-27T11:51:01.887Z,6.67
2023-09-27T11:53:29.344Z,9.60
2023-09-27T11:55:56.963Z,6.17
2023-09-27T11:58:27.536Z,8.07
2023-09-27T12:00:54.472Z,8.70
2023-09-27T12:03:21.772Z,7.87
2023-09-27T12:05:49.616Z,11.43
2023-09-27T12:08:16.725Z,8.77
2023-09-27T12:10:43.553Z,9.40
2023-09-27T12:13:10.460Z,5.20
2023-09-27T12:15:37.260Z,4.63
2023-09-27T12:18:04.507Z,9.60
2023-09-27T12:20:40.931Z,9.80
2023-09-27T12:23:10.808Z,5.60
2023-09-27T12:25:38.190Z,12.47
2023-09-27T12:28:05.200Z,5.97
2023-09-27T12:30:32.223Z,10.63
2023-09-27T12:32:59.175Z,9.93
2023-09-27T12:35:26.269Z,7.20
2023-09-27T12:37:53.215Z,5.30
2023-09-27T12:40:20.115Z,6.37
2023-09-27T12:42:46.963Z,4.80
2023-09-27T12:45:14.856Z,5.37
2023-09-27T12:47:42.820Z,10.47
2023-09-27T12:50:10.315Z,18.23
2023-09-27T12:52:37.131Z,9.27
2023-09-27T12:55:06.322Z,11.20
2023-09-27T12:57:33.345Z,4.90
2023-09-27T13:00:00.424Z,9.37
2023-09-27T13:02:28.223Z,9.90
2023-09-27T13:04:55.251Z,5.50
2023-09-27T13:07:22.478Z,4.20
2023-09-27T13:09:50.232Z,5.53
2023-09-27T13:12:17.377Z,4.43
2023-09-27T13:14:44.484Z,8.87
2023-09-27T13:17:11.444Z,9.00
2023-09-27T13:19:38.410Z,8.90
2023-09-27T13:22:05.271Z,8.33
2023-09-27T13:24:32.636Z,11.17
2023-09-27T13:27:00.098Z,10.37
2023-09-27T13:29:27.079Z,4.27
2023-09-27T13:31:54.025Z,8.97
2023-09-27T13:34:20.984Z,4.83
2023-09-27T13:36:47.809Z,8.90
2023-09-27T13:39:26.826Z,14.20
2023-09-27T13:41:54.125Z,7.73
2023-09-27T13:44:21.357Z,9.47
2023-09-27T13:46:50.277Z,8.83
2023-09-27T13:49:18.244Z,11.67
2023-09-27T13:51:45.534Z,6.30
2023-09-27T13:54:15.582Z,7.10
2023-09-27T13:56:42.455Z,9.03
2023-09-27T13:59:09.757Z,11.07
2023-09-27T14:01:36.765Z,24.03
2023-09-27T14:04:04.393Z,17.13
2023-09-27T14:06:34.250Z,10.30
2023-09-27T14:09:01.177Z,5.20
2023-09-27T14:11:28.056Z,5.97
2023-09-27T14:13:55.142Z,8.17
2023-09-27T14:16:22.409Z,11.13
2023-09-27T14:18:49.777Z,10.57
2023-09-27T14:21:16.579Z,12.80
2023-09-27T14:23:44.192Z,9.27
2023-09-27T14:26:12.563Z,10.80
2023-09-27T14:28:40.139Z,6.10
2023-09-27T14:31:07.331Z,6.90
2023-09-27T14:33:35.148Z,9.47
2023-09-27T14:36:05.738Z,7.10
2023-09-27T14:38:36.079Z,7.47
2023-09-27T14:41:10.324Z,5.50
2023-09-27T14:43:40.476Z,14.03
2023-09-27T14:46:12.356Z,6.77
2023-09-27T14:48:39.869Z,8.77
2023-09-27T14:51:11.055Z,4.00
2023-09-27T14:53:38.250Z,6.97
2023-09-27T14:56:13.984Z,6.60
2023-09-27T14:58:41.461Z,10.00
2023-09-27T15:01:09.057Z,4.63
2023-09-27T15:03:36.149Z,8.40
2023-09-27T15:06:06.863Z,13.00
2023-09-27T15:08:34.307Z,5.37
2023-09-27T15:11:01.595Z,8.47
2023-09-27T15:13:28.718Z,9.50
2023-09-27T15:15:55.775Z,9.90
2023-09-27T15:18:25.685Z,9.73
2023-09-27T15:20:54.777Z,4.63
2023-09-27T15:23:21.779Z,6.80
2023-09-27T15:25:50.004Z,4.27
2023-09-27T15:28:17.651Z,7.57
2023-09-27T15:30:44.550Z,8.43
2023-09-27T15:33:11.361Z,8.93
2023-09-27T15:35:39.045Z,12.70
2023-09-27T15:38:06.082Z,4.13
2023-09-27T15:40:33.039Z,5.50
2023-09-27T15:42:59.922Z,7.07
2023-09-27T15:45:27.124Z,12.43
2023-09-27T15:47:54.234Z,7.27
2023-09-27T15:50:21.188Z,8.60
2023-09-27T15:52:48.790Z,7.37
2023-09-27T15:55:18.023Z,8.27
2023-09-27T15:57:45.062Z,6.27
2023-09-27T16:00:15.153Z,4.90
2023-09-27T16:02:41.997Z,9.47
2023-09-27T16:05:11.782Z,5.47
2023-09-27T16:07:40.060Z,5.57
2023-09-27T16:10:10.122Z,8.80
2023-09-27T16:12:37.712Z,6.50
2023-09-27T16:15:07.708Z,9.97
2023-09-27T16:17:36.783Z,6.30
2023-09-27T16:20:05.802Z,4.20
2023-09-27T16:22:32.619Z,5.53
2023-09-27T16:25:00.173Z,6.43
2023-09-27T16:27:27.265Z,7.23
2023-09-27T16:29:55.456Z,7.13
2023-09-27T16:32:23.030Z,7.17
2023-09-27T16:34:49.967Z,5.43
2023-09-27T16:37:16.857Z,6.67
2023-09-27T16:39:43.716Z,5.30
2023-09-27T16:42:10.616Z,7.77
2023-09-27T16:44:37.389Z,6.37
2023-09-27T16:47:04.220Z,6.63
2023-09-27T16:49:31.092Z,7.97
2023-09-27T16:51:57.916Z,6.93
2023-09-27T16:54:25.284Z,5.90
2023-09-27T16:56:52.081Z,16.27
2023-09-27T16:59:18.872Z,5.67
2023-09-27T17:01:45.807Z,6.70
2023-09-27T17:04:13.972Z,10.80
2023-09-27T17:06:40.984Z,6.13
2023-09-27T17:09:07.904Z,11.40
2023-09-27T17:11:35.019Z,8.10
2023-09-27T17:14:02.124Z,6.97
2023-09-27T17:16:29.184Z,9.10
2023-09-27T17:18:56.170Z,11.40
2023-09-27T17:21:23.501Z,5.07
2023-09-27T17:23:51.190Z,10.17
2023-09-27T17:26:18.155Z,18.03
2023-09-27T17:28:45.283Z,8.83
2023-09-27T17:31:12.817Z,5.73
2023-09-27T17:33:41.722Z,9.30
2023-09-27T17:36:08.690Z,7.23
2023-09-27T17:38:35.616Z,10.33
2023-09-27T17:41:02.669Z,6.83
2023-09-27T17:43:29.538Z,8.30
2023-09-27T17:45:57.190Z,8.93
2023-09-27T17:48:24.142Z,23.17
2023-09-27T17:50:51.016Z,8.50
2023-09-27T17:53:17.885Z,9.30
2023-09-27T17:55:45.142Z,7.33
2023-09-27T17:58:12.526Z,8.00
2023-09-27T18:00:39.329Z,13.33
2023-09-27T18:03:06.188Z,7.53
2023-09-27T18:05:33.714Z,7.37
2023-09-27T18:08:00.664Z,20.33
2023-09-27T18:10:27.957Z,7.73
2023-09-27T18:12:54.880Z,6.30
2023-09-27T18:15:28.282Z,5.07
2023-09-27T18:17:56.324Z,10.13
2023-09-27T18:20:23.704Z,10.50
2023-09-27T18:22:50.859Z,9.50
2023-09-27T18:25:17.740Z,9.53
2023-09-27T18:27:44.958Z,10.73
2023-09-27T18:30:12.289Z,15.27
2023-09-27T18:32:39.144Z,12.90
2023-09-27T18:35:06.513Z,9.47
2023-09-27T18:37:34.588Z,10.63
2023-09-27T18:40:01.805Z,11.87
2023-09-27T18:42:29.170Z,6.53
2023-09-27T18:44:56.106Z,7.80
2023-09-27T18:47:23.011Z,11.00
2023-09-27T18:49:49.863Z,6.23
2023-09-27T18:52:16.733Z,14.90
2023-09-27T18:54:43.628Z,9.80
2023-09-27T18:57:11.263Z,10.03
2023-09-27T18:59:38.055Z,6.37
2023-09-27T19:02:04.964Z,9.43
2023-09-27T19:04:31.952Z,12.80
2023-09-27T19:06:58.830Z,9.27
2023-09-27T19:09:25.610Z,10.03
2023-09-27T19:11:54.308Z,7.77
2023-09-27T19:14:21.447Z,14.30
2023-09-27T19:16:48.379Z,7.93
2023-09-27T19:19:15.644Z,8.23
2023-09-27T19:21:43.673Z,6.43
2023-09-27T19:24:11.030Z,6.83
2023-09-27T19:26:39.125Z,21.23
2023-09-27T19:29:06.049Z,35.53
2023-09-27T19:31:32.919Z,38.17
2023-09-27T19:34:00.986Z,36.30
2023-09-27T19:36:27.973Z,40.30
2023-09-27T19:38:54.813Z,29.43
2023-09-27T19:41:27.851Z,21.30
2023-09-27T19:43:54.999Z,18.30
2023-09-27T19:46:22.658Z,10.77
2023-09-27T19:48:49.519Z,12.97
2023-09-27T19:51:27.228Z,11.27
2023-09-27T19:53:55.406Z,14.27
2023-09-27T19:56:22.811Z,14.03
2023-09-27T19:58:50.031Z,19.47
2023-09-27T20:01:32.521Z,14.97
2023-09-27T20:03:59.990Z,10.83
2023-09-27T20:06:27.232Z,8.90
2023-09-27T20:08:54.138Z,12.03
2023-09-27T20:11:21.394Z,11.60
2023-09-27T20:13:48.215Z,11.43
2023-09-27T20:16:15.757Z,8.50
2023-09-27T20:18:42.622Z,11.70
2023-09-27T20:21:09.465Z,8.73
2023-09-27T20:23:36.322Z,9.20
2023-09-27T20:26:03.609Z,12.53
2023-09-27T20:28:30.590Z,8.67
2023-09-27T20:30:57.478Z,13.17
2023-09-27T20:33:25.076Z,13.77
2023-09-27T20:35:52.709Z,7.57
2023-09-27T20:38:19.715Z,13.63
2023-09-27T20:40:46.531Z,8.43
2023-09-27T20:43:13.443Z,14.63
2023-09-27T20:45:40.974Z,14.57
2023-09-27T20:48:07.998Z,10.33
2023-09-27T20:50:34.882Z,14.43
2023-09-27T20:53:01.765Z,14.70
2023-09-27T20:55:28.973Z,10.60
2023-09-27T20:57:55.872Z,10.00
2023-09-27T21:00:23.732Z,13.67
2023-09-27T21:02:50.822Z,7.37
2023-09-27T21:05:17.857Z,10.73
2023-09-27T21:07:44.691Z,17.73
2023-09-27T21:10:11.730Z,13.60
2023-09-27T21:12:38.602Z,10.10
2023-09-27T21:15:06.476Z,7.17
2023-09-27T21:17:33.399Z,8.27
2023-09-27T21:20:01.164Z,8.20
2023-09-27T21:22:28.196Z,12.50
2023-09-27T21:24:55.032Z,8.20
2023-09-27T21:27:21.801Z,9.97
2023-09-27T21:29:48.593Z,9.17
2023-09-27T21:32:16.164Z,9.90
2023-09-27T21:34:45.217Z,12.77
2023-09-27T21:37:15.681Z,9.37
2023-09-27T21:39:42.553Z,8.50
2023-09-27T21:42:09.951Z,10.20
2023-09-27T21:44:36.800Z,8.17
2023-09-27T21:47:04.782Z,11.80
2023-09-27T21:49:31.716Z,9.77
2023-09-27T21:51:58.526Z,11.20
2023-09-27T21:54:25.388Z,11.83
2023-09-27T21:56:52.161Z,7.17
2023-09-27T21:59:19.069Z,8.00
2023-09-27T22:01:46.096Z,8.57
2023-09-27T22:04:13.048Z,8.10
2023-09-27T22:06:40.049Z,9.30
2023-09-27T22:09:06.943Z,8.70
2023-09-27T22:11:33.811Z,11.20
2023-09-27T22:14:05.919Z,10.63
2023-09-27T22:16:34.276Z,8.53
2023-09-27T22:19:11.969Z,13.33
2023-09-27T22:21:42.697Z,8.90
2023-09-27T22:24:12.118Z,7.80
2023-09-27T22:26:39.652Z,9.47
2023-09-27T22:29:10.021Z,8.50
2023-09-27T22:31:40.462Z,10.40
2023-09-27T22:34:25.065Z,11.57
2023-09-27T22:36:54.461Z,9.90
2023-09-27T22:39:22.829Z,8.17
2023-09-27T22:41:53.116Z,11.57
2023-09-27T22:44:21.023Z,9.47
2023-09-27T22:46:49.794Z,13.83
2023-09-27T22:49:17.770Z,7.60
2023-09-27T22:51:46.915Z,9.60
2023-09-27T22:54:17.959Z,11.03
2023-09-27T22:56:46.241Z,7.33
2023-09-27T22:59:14.576Z,13.30
2023-09-27T23:01:43.951Z,14.93
2023-09-27T23:04:15.499Z,8.43
2023-09-27T23:06:46.323Z,7.27
2023-09-27T23:09:26.124Z,9.23
2023-09-27T23:12:12.914Z,9.07
2023-09-27T23:14:59.960Z,16.97
2023-09-27T23:17:31.936Z,11.60
2023-09-27T23:20:00.276Z,8.73
2023-09-27T23:22:27.681Z,9.43
2023-09-27T23:25:13.666Z,13.67
2023-09-27T23:27:40.506Z,10.00
2023-09-27T23:30:13.953Z,7.07
2023-09-27T23:32:41.266Z,9.10
2023-09-27T23:35:10.740Z,6.70
2023-09-27T23:37:38.123Z,11.20
2023-09-27T23:40:14.656Z,7.30
2023-09-27T23:42:48.218Z,8.00
2023-09-27T23:45:15.399Z,6.87
2023-09-27T23:47:51.045Z,8.57
2023-09-27T23:50:18.621Z,11.00
2023-09-27T23:52:47.047Z,7.60
2023-09-27T23:55:15.945Z,6.93
2023-09-27T23:57:47.844Z,8.13
